SBOSBO MAA / VOMM
Speedbird OnlineSpeedbird Online MAA / VOMM

Chennai International Airport
12:58 32°C

Location Madras, India
Latitude: 12.990005493164062
Longitude: 80.16929626464844
Web Wikipedia
Altitude 16 Meter / 52 Feet
Distance 8,195 KM / 5,092 Miles
from London.
Time Zone UTC +5.5 hours (Asia/Calcutta)
Codes IATA: MAA
ICAO: VOMM
Currency £1 equals INR 92.44
Runways
RunwayLength (m)Surface
073658Asphalt
122045Partial
253658Asphalt
302045Partial
Radio
TypeDescriptionFrequency
ACCCHENNAI CNTR118.9
APPAPP127.9
ATISATIS127.45
GCASCHENNAI RADARS125.7
GNDGND121.9
TWRTWR118.1
Live ATC
METAR VOMM 060700Z 28008KT 6000 SCT020 BKN100 32/24 Q1004 NOSIG
TAF TAF VOMM 060500Z 0606/0712 27010KT 5000 -DZ/BR SCT012 BKN080 PROB30 TEMPO 0606/0612 4000 -TSRA/RA SCT010 FEW025CB BKN080 BECMG 0612/0613 14010KT BECMG 0618/0619 27005KT
Weather As Of 06 Oct 2022 12:58
Description Broken clouds
Wind 15 km/h from West (280°)
Cloud Cover 75%
Precipitation Rain: none, Snow: none
Sunrise 05:58
Sunset 17:56
Lounges TFS Travel Club, International Terminal
Travel Food Services Lounge, New International Terminal
Rotations During the last 90 days there were
77 flights from LHR
77 flights to LHR


© 2017-2022 Speedbird Online